sensor_id;sensor_type;location;lat;lon;timestamp;P1;durP1;ratioP1;P2;durP2;ratioP2
35977;SDS011;22056;0.000;0.000;2023-06-19T00:01:21;1.70;;;1.60;;
35977;SDS011;22056;0.000;0.000;2023-06-19T00:03:47;1.60;;;1.50;;
35977;SDS011;22056;0.000;0.000;2023-06-19T00:06:13;1.52;;;1.42;;
35977;SDS011;22056;0.000;0.000;2023-06-19T00:08:39;1.45;;;1.35;;
35977;SDS011;22056;0.000;0.000;2023-06-19T00:11:08;1.85;;;1.75;;
35977;SDS011;22056;0.000;0.000;2023-06-19T00:13:34;1.70;;;1.60;;
35977;SDS011;22056;0.000;0.000;2023-06-19T00:16:00;1.77;;;1.67;;
35977;SDS011;22056;0.000;0.000;2023-06-19T00:18:27;1.80;;;1.50;;
35977;SDS011;22056;0.000;0.000;2023-06-19T00:20:53;1.67;;;1.58;;
35977;SDS011;22056;0.000;0.000;2023-06-19T00:23:21;1.50;;;1.40;;
35977;SDS011;22056;0.000;0.000;2023-06-19T00:25:47;1.60;;;1.50;;
35977;SDS011;22056;0.000;0.000;2023-06-19T00:28:14;1.50;;;1.40;;
35977;SDS011;22056;0.000;0.000;2023-06-19T00:30:40;1.58;;;1.48;;
35977;SDS011;22056;0.000;0.000;2023-06-19T00:33:07;1.20;;;1.10;;
35977;SDS011;22056;0.000;0.000;2023-06-19T00:35:33;1.15;;;1.05;;
35977;SDS011;22056;0.000;0.000;2023-06-19T00:37:59;1.30;;;1.20;;
35977;SDS011;22056;0.000;0.000;2023-06-19T00:40:29;1.60;;;1.50;;
35977;SDS011;22056;0.000;0.000;2023-06-19T00:42:56;1.50;;;1.40;;
35977;SDS011;22056;0.000;0.000;2023-06-19T00:45:22;1.50;;;1.40;;
35977;SDS011;22056;0.000;0.000;2023-06-19T00:47:50;1.33;;;1.23;;
35977;SDS011;22056;0.000;0.000;2023-06-19T00:50:16;1.50;;;1.40;;
35977;SDS011;22056;0.000;0.000;2023-06-19T00:52:42;1.60;;;1.50;;
35977;SDS011;22056;0.000;0.000;2023-06-19T00:55:09;1.42;;;1.33;;
35977;SDS011;22056;0.000;0.000;2023-06-19T00:57:35;1.40;;;1.30;;
35977;SDS011;22056;0.000;0.000;2023-06-19T01:00:02;1.10;;;1.10;;
35977;SDS011;22056;0.000;0.000;2023-06-19T01:02:32;1.30;;;1.20;;
35977;SDS011;22056;0.000;0.000;2023-06-19T01:04:58;1.27;;;1.17;;
35977;SDS011;22056;0.000;0.000;2023-06-19T01:10:10;1.40;;;1.30;;
35977;SDS011;22056;0.000;0.000;2023-06-19T01:12:38;1.52;;;1.42;;
35977;SDS011;22056;0.000;0.000;2023-06-19T01:15:07;1.67;;;1.58;;
35977;SDS011;22056;0.000;0.000;2023-06-19T01:17:34;1.70;;;1.60;;
35977;SDS011;22056;0.000;0.000;2023-06-19T01:20:01;1.38;;;1.27;;
35977;SDS011;22056;0.000;0.000;2023-06-19T01:22:33;1.83;;;1.73;;
35977;SDS011;22056;0.000;0.000;2023-06-19T01:24:59;1.08;;;1.00;;
35977;SDS011;22056;0.000;0.000;2023-06-19T01:27:26;1.70;;;1.60;;
35977;SDS011;22056;0.000;0.000;2023-06-19T01:29:56;1.30;;;1.20;;
35977;SDS011;22056;0.000;0.000;2023-06-19T01:32:24;1.30;;;1.20;;
35977;SDS011;22056;0.000;0.000;2023-06-19T01:34:52;1.13;;;1.10;;
35977;SDS011;22056;0.000;0.000;2023-06-19T01:37:18;1.42;;;1.33;;
35977;SDS011;22056;0.000;0.000;2023-06-19T01:39:45;1.42;;;1.33;;
35977;SDS011;22056;0.000;0.000;2023-06-19T01:42:12;1.50;;;1.40;;
35977;SDS011;22056;0.000;0.000;2023-06-19T01:44:39;1.45;;;1.35;;
35977;SDS011;22056;0.000;0.000;2023-06-19T01:47:11;1.90;;;1.80;;
35977;SDS011;22056;0.000;0.000;2023-06-19T01:49:37;1.60;;;1.50;;
35977;SDS011;22056;0.000;0.000;2023-06-19T01:52:04;1.92;;;1.17;;
35977;SDS011;22056;0.000;0.000;2023-06-19T01:54:30;1.35;;;1.25;;
35977;SDS011;22056;0.000;0.000;2023-06-19T01:56:57;1.30;;;1.20;;
35977;SDS011;22056;0.000;0.000;2023-06-19T01:59:23;1.42;;;1.33;;
35977;SDS011;22056;0.000;0.000;2023-06-19T02:01:49;1.30;;;1.20;;
35977;SDS011;22056;0.000;0.000;2023-06-19T02:04:15;1.30;;;1.20;;
35977;SDS011;22056;0.000;0.000;2023-06-19T02:06:41;1.60;;;1.50;;
35977;SDS011;22056;0.000;0.000;2023-06-19T02:09:07;1.70;;;1.55;;
35977;SDS011;22056;0.000;0.000;2023-06-19T02:11:33;1.70;;;1.60;;
35977;SDS011;22056;0.000;0.000;2023-06-19T02:13:59;1.50;;;1.40;;
35977;SDS011;22056;0.000;0.000;2023-06-19T02:16:25;1.25;;;1.20;;
35977;SDS011;22056;0.000;0.000;2023-06-19T02:18:52;1.40;;;1.30;;
35977;SDS011;22056;0.000;0.000;2023-06-19T02:21:18;1.50;;;1.40;;
35977;SDS011;22056;0.000;0.000;2023-06-19T02:23:44;1.60;;;1.50;;
35977;SDS011;22056;0.000;0.000;2023-06-19T02:26:10;1.73;;;1.63;;
35977;SDS011;22056;0.000;0.000;2023-06-19T02:28:36;1.65;;;1.55;;
35977;SDS011;22056;0.000;0.000;2023-06-19T02:31:02;1.60;;;1.50;;
35977;SDS011;22056;0.000;0.000;2023-06-19T02:33:28;1.73;;;1.52;;
35977;SDS011;22056;0.000;0.000;2023-06-19T02:35:54;1.80;;;1.70;;
35977;SDS011;22056;0.000;0.000;2023-06-19T02:38:24;1.55;;;1.45;;
35977;SDS011;22056;0.000;0.000;2023-06-19T02:40:51;1.73;;;1.63;;
35977;SDS011;22056;0.000;0.000;2023-06-19T02:43:17;1.48;;;1.38;;
35977;SDS011;22056;0.000;0.000;2023-06-19T02:45:43;1.60;;;1.50;;
35977;SDS011;22056;0.000;0.000;2023-06-19T02:48:09;1.40;;;1.30;;
35977;SDS011;22056;0.000;0.000;2023-06-19T02:50:35;1.75;;;1.60;;
35977;SDS011;22056;0.000;0.000;2023-06-19T02:53:01;1.80;;;1.70;;
35977;SDS011;22056;0.000;0.000;2023-06-19T02:55:27;1.40;;;1.30;;
35977;SDS011;22056;0.000;0.000;2023-06-19T02:57:53;1.25;;;1.15;;
35977;SDS011;22056;0.000;0.000;2023-06-19T03:00:20;1.40;;;1.30;;
35977;SDS011;22056;0.000;0.000;2023-06-19T03:02:46;1.50;;;1.40;;
35977;SDS011;22056;0.000;0.000;2023-06-19T03:05:13;1.02;;;1.02;;
35977;SDS011;22056;0.000;0.000;2023-06-19T03:07:41;0.90;;;0.90;;
35977;SDS011;22056;0.000;0.000;2023-06-19T03:10:07;1.38;;;1.27;;
35977;SDS011;22056;0.000;0.000;2023-06-19T03:12:33;1.60;;;1.50;;
35977;SDS011;22056;0.000;0.000;2023-06-19T03:14:59;1.30;;;1.20;;
35977;SDS011;22056;0.000;0.000;2023-06-19T03:17:25;1.23;;;1.13;;
35977;SDS011;22056;0.000;0.000;2023-06-19T03:19:51;1.17;;;1.08;;
35977;SDS011;22056;0.000;0.000;2023-06-19T03:22:19;1.08;;;0.98;;
35977;SDS011;22056;0.000;0.000;2023-06-19T03:24:45;1.30;;;1.20;;
35977;SDS011;22056;0.000;0.000;2023-06-19T03:27:11;1.08;;;0.98;;
35977;SDS011;22056;0.000;0.000;2023-06-19T03:29:38;1.20;;;1.10;;
35977;SDS011;22056;0.000;0.000;2023-06-19T03:32:04;1.40;;;1.30;;
35977;SDS011;22056;0.000;0.000;2023-06-19T03:34:30;1.50;;;1.40;;
35977;SDS011;22056;0.000;0.000;2023-06-19T03:36:56;1.23;;;1.13;;
35977;SDS011;22056;0.000;0.000;2023-06-19T03:39:22;1.10;;;1.00;;
35977;SDS011;22056;0.000;0.000;2023-06-19T03:41:48;1.40;;;1.30;;
35977;SDS011;22056;0.000;0.000;2023-06-19T03:44:14;1.30;;;1.20;;
35977;SDS011;22056;0.000;0.000;2023-06-19T03:46:41;1.30;;;1.20;;
35977;SDS011;22056;0.000;0.000;2023-06-19T03:49:07;1.20;;;1.10;;
35977;SDS011;22056;0.000;0.000;2023-06-19T03:51:34;1.95;;;1.40;;
35977;SDS011;22056;0.000;0.000;2023-06-19T03:54:01;1.25;;;1.15;;
35977;SDS011;22056;0.000;0.000;2023-06-19T03:56:27;1.55;;;1.45;;
35977;SDS011;22056;0.000;0.000;2023-06-19T03:58:53;1.40;;;1.30;;
35977;SDS011;22056;0.000;0.000;2023-06-19T04:03:55;1.70;;;1.60;;
35977;SDS011;22056;0.000;0.000;2023-06-19T04:06:21;1.60;;;1.50;;
35977;SDS011;22056;0.000;0.000;2023-06-19T04:08:47;2.13;;;1.50;;
35977;SDS011;22056;0.000;0.000;2023-06-19T04:11:14;1.55;;;1.40;;
35977;SDS011;22056;0.000;0.000;2023-06-19T04:13:40;2.35;;;1.58;;
35977;SDS011;22056;0.000;0.000;2023-06-19T04:16:06;1.70;;;1.55;;
35977;SDS011;22056;0.000;0.000;2023-06-19T04:18:32;1.88;;;1.60;;
35977;SDS011;22056;0.000;0.000;2023-06-19T04:20:58;1.70;;;1.60;;
35977;SDS011;22056;0.000;0.000;2023-06-19T04:23:24;1.73;;;1.63;;
35977;SDS011;22056;0.000;0.000;2023-06-19T04:25:50;2.28;;;1.73;;
35977;SDS011;22056;0.000;0.000;2023-06-19T04:28:16;1.70;;;1.60;;
35977;SDS011;22056;0.000;0.000;2023-06-19T04:30:43;4.30;;;1.85;;
35977;SDS011;22056;0.000;0.000;2023-06-19T04:33:09;1.52;;;1.42;;
35977;SDS011;22056;0.000;0.000;2023-06-19T04:35:35;2.10;;;2.00;;
35977;SDS011;22056;0.000;0.000;2023-06-19T04:38:07;3.22;;;1.60;;
35977;SDS011;22056;0.000;0.000;2023-06-19T04:40:34;1.77;;;1.67;;
35977;SDS011;22056;0.000;0.000;2023-06-19T04:43:01;1.60;;;1.50;;
35977;SDS011;22056;0.000;0.000;2023-06-19T04:45:27;4.75;;;1.67;;
35977;SDS011;22056;0.000;0.000;2023-06-19T04:47:54;2.63;;;1.63;;
35977;SDS011;22056;0.000;0.000;2023-06-19T04:50:22;3.05;;;1.65;;
35977;SDS011;22056;0.000;0.000;2023-06-19T04:52:49;2.92;;;1.55;;
35977;SDS011;22056;0.000;0.000;2023-06-19T04:55:15;3.95;;;1.70;;
35977;SDS011;22056;0.000;0.000;2023-06-19T04:57:41;2.33;;;1.75;;
35977;SDS011;22056;0.000;0.000;2023-06-19T05:00:08;2.00;;;1.77;;
35977;SDS011;22056;0.000;0.000;2023-06-19T05:02:39;2.63;;;1.70;;
35977;SDS011;22056;0.000;0.000;2023-06-19T05:05:08;4.65;;;1.75;;
35977;SDS011;22056;0.000;0.000;2023-06-19T05:07:35;4.15;;;1.60;;
35977;SDS011;22056;0.000;0.000;2023-06-19T05:10:01;6.88;;;2.03;;
35977;SDS011;22056;0.000;0.000;2023-06-19T05:12:27;5.75;;;1.90;;
35977;SDS011;22056;0.000;0.000;2023-06-19T05:14:53;3.35;;;1.90;;
35977;SDS011;22056;0.000;0.000;2023-06-19T05:17:19;2.22;;;2.00;;
35977;SDS011;22056;0.000;0.000;2023-06-19T05:19:45;2.63;;;1.92;;
35977;SDS011;22056;0.000;0.000;2023-06-19T05:22:11;3.65;;;1.88;;
35977;SDS011;22056;0.000;0.000;2023-06-19T05:24:38;2.38;;;1.77;;
35977;SDS011;22056;0.000;0.000;2023-06-19T05:27:05;7.93;;;2.15;;
35977;SDS011;22056;0.000;0.000;2023-06-19T05:29:31;2.65;;;1.77;;
35977;SDS011;22056;0.000;0.000;2023-06-19T05:31:57;3.88;;;1.60;;
35977;SDS011;22056;0.000;0.000;2023-06-19T05:34:23;4.47;;;1.67;;
35977;SDS011;22056;0.000;0.000;2023-06-19T05:36:49;3.92;;;1.70;;
35977;SDS011;22056;0.000;0.000;2023-06-19T05:39:15;3.90;;;1.58;;
35977;SDS011;22056;0.000;0.000;2023-06-19T05:41:44;5.07;;;2.00;;
35977;SDS011;22056;0.000;0.000;2023-06-19T05:44:11;7.03;;;1.92;;
35977;SDS011;22056;0.000;0.000;2023-06-19T05:46:41;4.30;;;2.00;;
35977;SDS011;22056;0.000;0.000;2023-06-19T05:49:08;5.97;;;1.80;;
35977;SDS011;22056;0.000;0.000;2023-06-19T05:51:34;6.93;;;1.98;;
35977;SDS011;22056;0.000;0.000;2023-06-19T05:54:00;4.47;;;2.20;;
35977;SDS011;22056;0.000;0.000;2023-06-19T05:56:31;5.78;;;2.10;;
35977;SDS011;22056;0.000;0.000;2023-06-19T05:58:58;7.07;;;2.33;;
35977;SDS011;22056;0.000;0.000;2023-06-19T06:01:25;3.88;;;1.80;;
35977;SDS011;22056;0.000;0.000;2023-06-19T06:03:54;6.82;;;2.45;;
35977;SDS011;22056;0.000;0.000;2023-06-19T06:06:21;7.07;;;2.28;;
35977;SDS011;22056;0.000;0.000;2023-06-19T06:08:48;5.20;;;2.53;;
35977;SDS011;22056;0.000;0.000;2023-06-19T06:11:14;5.95;;;2.15;;
35977;SDS011;22056;0.000;0.000;2023-06-19T06:13:40;5.70;;;2.10;;
35977;SDS011;22056;0.000;0.000;2023-06-19T06:16:06;5.22;;;2.00;;
35977;SDS011;22056;0.000;0.000;2023-06-19T06:18:32;6.00;;;2.30;;
35977;SDS011;22056;0.000;0.000;2023-06-19T06:20:58;5.03;;;2.15;;
35977;SDS011;22056;0.000;0.000;2023-06-19T06:23:25;5.05;;;2.05;;
35977;SDS011;22056;0.000;0.000;2023-06-19T06:25:51;5.68;;;2.13;;
35977;SDS011;22056;0.000;0.000;2023-06-19T06:28:17;3.63;;;1.90;;
35977;SDS011;22056;0.000;0.000;2023-06-19T06:30:43;7.03;;;2.20;;
35977;SDS011;22056;0.000;0.000;2023-06-19T06:33:09;6.63;;;2.60;;
35977;SDS011;22056;0.000;0.000;2023-06-19T06:35:36;4.30;;;1.98;;
35977;SDS011;22056;0.000;0.000;2023-06-19T06:38:02;5.28;;;2.30;;
35977;SDS011;22056;0.000;0.000;2023-06-19T06:40:28;4.95;;;2.05;;
35977;SDS011;22056;0.000;0.000;2023-06-19T06:42:55;9.45;;;2.20;;
35977;SDS011;22056;0.000;0.000;2023-06-19T06:45:21;4.95;;;2.10;;
35977;SDS011;22056;0.000;0.000;2023-06-19T06:47:47;3.97;;;2.10;;
35977;SDS011;22056;0.000;0.000;2023-06-19T06:50:13;4.82;;;2.10;;
35977;SDS011;22056;0.000;0.000;2023-06-19T06:52:39;5.22;;;1.92;;
35977;SDS011;22056;0.000;0.000;2023-06-19T06:55:05;5.95;;;2.38;;
35977;SDS011;22056;0.000;0.000;2023-06-19T06:57:31;3.67;;;1.90;;
35977;SDS011;22056;0.000;0.000;2023-06-19T06:59:57;4.43;;;1.90;;
35977;SDS011;22056;0.000;0.000;2023-06-19T07:02:24;9.02;;;2.30;;
35977;SDS011;22056;0.000;0.000;2023-06-19T07:04:50;7.63;;;2.20;;
35977;SDS011;22056;0.000;0.000;2023-06-19T07:07:17;6.85;;;2.05;;
35977;SDS011;22056;0.000;0.000;2023-06-19T07:09:43;6.40;;;2.60;;
35977;SDS011;22056;0.000;0.000;2023-06-19T07:12:09;5.35;;;2.30;;
35977;SDS011;22056;0.000;0.000;2023-06-19T07:14:35;8.40;;;3.00;;
35977;SDS011;22056;0.000;0.000;2023-06-19T07:17:01;7.05;;;2.83;;
35977;SDS011;22056;0.000;0.000;2023-06-19T07:19:28;6.95;;;2.45;;
35977;SDS011;22056;0.000;0.000;2023-06-19T07:21:54;6.60;;;2.90;;
35977;SDS011;22056;0.000;0.000;2023-06-19T07:24:20;7.32;;;2.67;;
35977;SDS011;22056;0.000;0.000;2023-06-19T07:26:48;6.35;;;2.47;;
35977;SDS011;22056;0.000;0.000;2023-06-19T07:29:15;8.40;;;2.40;;
35977;SDS011;22056;0.000;0.000;2023-06-19T07:31:41;8.27;;;2.47;;
35977;SDS011;22056;0.000;0.000;2023-06-19T07:34:10;9.70;;;2.90;;
35977;SDS011;22056;0.000;0.000;2023-06-19T07:36:36;3.55;;;2.33;;
35977;SDS011;22056;0.000;0.000;2023-06-19T07:39:02;6.03;;;2.50;;
35977;SDS011;22056;0.000;0.000;2023-06-19T07:41:28;7.07;;;2.33;;
35977;SDS011;22056;0.000;0.000;2023-06-19T07:43:54;7.13;;;2.50;;
35977;SDS011;22056;0.000;0.000;2023-06-19T07:46:20;5.45;;;2.70;;
35977;SDS011;22056;0.000;0.000;2023-06-19T07:48:47;8.90;;;2.35;;
35977;SDS011;22056;0.000;0.000;2023-06-19T07:51:13;10.02;;;2.20;;
35977;SDS011;22056;0.000;0.000;2023-06-19T07:53:39;9.90;;;2.50;;
35977;SDS011;22056;0.000;0.000;2023-06-19T07:56:05;7.55;;;2.40;;
35977;SDS011;22056;0.000;0.000;2023-06-19T07:58:31;9.95;;;2.78;;
35977;SDS011;22056;0.000;0.000;2023-06-19T08:00:57;7.15;;;2.50;;
35977;SDS011;22056;0.000;0.000;2023-06-19T08:03:23;9.38;;;2.38;;
35977;SDS011;22056;0.000;0.000;2023-06-19T08:05:50;5.25;;;2.60;;
35977;SDS011;22056;0.000;0.000;2023-06-19T08:08:16;7.03;;;2.22;;
35977;SDS011;22056;0.000;0.000;2023-06-19T08:10:42;7.88;;;2.70;;
35977;SDS011;22056;0.000;0.000;2023-06-19T08:13:08;8.50;;;2.15;;
35977;SDS011;22056;0.000;0.000;2023-06-19T08:15:36;10.45;;;2.25;;
35977;SDS011;22056;0.000;0.000;2023-06-19T08:18:02;6.13;;;2.45;;
35977;SDS011;22056;0.000;0.000;2023-06-19T08:20:28;5.55;;;2.40;;
35977;SDS011;22056;0.000;0.000;2023-06-19T08:22:54;7.05;;;2.30;;
35977;SDS011;22056;0.000;0.000;2023-06-19T08:25:21;8.95;;;2.75;;
35977;SDS011;22056;0.000;0.000;2023-06-19T08:27:48;7.03;;;2.58;;
35977;SDS011;22056;0.000;0.000;2023-06-19T08:30:14;6.20;;;2.60;;
35977;SDS011;22056;0.000;0.000;2023-06-19T08:32:40;9.93;;;2.15;;
35977;SDS011;22056;0.000;0.000;2023-06-19T08:35:06;5.68;;;2.17;;
35977;SDS011;22056;0.000;0.000;2023-06-19T08:37:33;9.60;;;2.25;;
35977;SDS011;22056;0.000;0.000;2023-06-19T08:39:59;6.03;;;2.72;;
35977;SDS011;22056;0.000;0.000;2023-06-19T08:42:25;6.20;;;2.47;;
35977;SDS011;22056;0.000;0.000;2023-06-19T08:44:51;6.68;;;2.20;;
35977;SDS011;22056;0.000;0.000;2023-06-19T08:47:17;8.75;;;2.30;;
35977;SDS011;22056;0.000;0.000;2023-06-19T08:49:43;6.43;;;2.65;;
35977;SDS011;22056;0.000;0.000;2023-06-19T08:52:09;8.38;;;2.70;;
35977;SDS011;22056;0.000;0.000;2023-06-19T08:54:36;5.93;;;2.50;;
35977;SDS011;22056;0.000;0.000;2023-06-19T08:57:09;5.60;;;2.20;;
35977;SDS011;22056;0.000;0.000;2023-06-19T08:59:35;7.03;;;2.33;;
35977;SDS011;22056;0.000;0.000;2023-06-19T09:02:02;9.68;;;2.65;;
35977;SDS011;22056;0.000;0.000;2023-06-19T09:04:28;4.97;;;2.10;;
35977;SDS011;22056;0.000;0.000;2023-06-19T09:07:04;7.78;;;2.50;;
35977;SDS011;22056;0.000;0.000;2023-06-19T09:09:30;4.22;;;2.63;;
35977;SDS011;22056;0.000;0.000;2023-06-19T09:16:59;6.50;;;2.30;;
35977;SDS011;22056;0.000;0.000;2023-06-19T09:19:25;3.78;;;1.90;;
35977;SDS011;22056;0.000;0.000;2023-06-19T09:21:51;6.88;;;2.30;;
35977;SDS011;22056;0.000;0.000;2023-06-19T09:24:17;5.65;;;2.40;;
35977;SDS011;22056;0.000;0.000;2023-06-19T09:26:43;5.10;;;2.53;;
35977;SDS011;22056;0.000;0.000;2023-06-19T09:29:10;6.57;;;2.08;;
35977;SDS011;22056;0.000;0.000;2023-06-19T09:31:36;6.85;;;2.22;;
35977;SDS011;22056;0.000;0.000;2023-06-19T09:34:04;7.40;;;2.53;;
35977;SDS011;22056;0.000;0.000;2023-06-19T09:36:31;8.15;;;2.30;;
35977;SDS011;22056;0.000;0.000;2023-06-19T09:38:59;7.43;;;2.13;;
35977;SDS011;22056;0.000;0.000;2023-06-19T09:41:26;3.28;;;2.20;;
35977;SDS011;22056;0.000;0.000;2023-06-19T09:43:55;6.95;;;2.50;;
35977;SDS011;22056;0.000;0.000;2023-06-19T09:46:31;4.07;;;2.53;;
35977;SDS011;22056;0.000;0.000;2023-06-19T09:48:58;3.47;;;2.20;;
35977;SDS011;22056;0.000;0.000;2023-06-19T09:51:47;9.95;;;2.72;;
35977;SDS011;22056;0.000;0.000;2023-06-19T09:54:12;6.22;;;2.55;;
35977;SDS011;22056;0.000;0.000;2023-06-19T09:56:40;6.88;;;2.17;;
35977;SDS011;22056;0.000;0.000;2023-06-19T09:59:07;6.25;;;2.28;;
35977;SDS011;22056;0.000;0.000;2023-06-19T10:01:34;5.32;;;2.53;;
35977;SDS011;22056;0.000;0.000;2023-06-19T10:04:03;4.80;;;2.53;;
35977;SDS011;22056;0.000;0.000;2023-06-19T10:06:29;3.75;;;2.33;;
35977;SDS011;22056;0.000;0.000;2023-06-19T10:08:56;4.85;;;2.28;;
35977;SDS011;22056;0.000;0.000;2023-06-19T10:11:43;4.00;;;2.20;;
35977;SDS011;22056;0.000;0.000;2023-06-19T10:14:10;5.85;;;2.35;;
35977;SDS011;22056;0.000;0.000;2023-06-19T10:16:36;6.60;;;2.50;;
35977;SDS011;22056;0.000;0.000;2023-06-19T10:19:11;7.28;;;2.75;;
35977;SDS011;22056;0.000;0.000;2023-06-19T10:21:46;10.10;;;2.80;;
35977;SDS011;22056;0.000;0.000;2023-06-19T10:24:16;4.45;;;2.70;;
35977;SDS011;22056;0.000;0.000;2023-06-19T10:26:54;6.38;;;2.55;;
35977;SDS011;22056;0.000;0.000;2023-06-19T10:29:21;8.02;;;2.60;;
35977;SDS011;22056;0.000;0.000;2023-06-19T10:31:47;9.65;;;2.90;;
35977;SDS011;22056;0.000;0.000;2023-06-19T10:34:14;6.75;;;2.33;;
35977;SDS011;22056;0.000;0.000;2023-06-19T10:36:40;7.38;;;2.65;;
35977;SDS011;22056;0.000;0.000;2023-06-19T10:39:06;4.85;;;2.33;;
35977;SDS011;22056;0.000;0.000;2023-06-19T10:41:34;6.03;;;2.50;;
35977;SDS011;22056;0.000;0.000;2023-06-19T10:44:04;7.60;;;2.45;;
35977;SDS011;22056;0.000;0.000;2023-06-19T10:46:31;3.97;;;2.63;;
35977;SDS011;22056;0.000;0.000;2023-06-19T10:48:59;4.30;;;2.47;;
35977;SDS011;22056;0.000;0.000;2023-06-19T10:51:26;6.03;;;2.15;;
35977;SDS011;22056;0.000;0.000;2023-06-19T10:53:54;5.32;;;2.30;;
35977;SDS011;22056;0.000;0.000;2023-06-19T10:56:20;6.93;;;2.60;;
35977;SDS011;22056;0.000;0.000;2023-06-19T10:58:46;7.40;;;2.35;;
35977;SDS011;22056;0.000;0.000;2023-06-19T11:01:13;5.35;;;2.30;;
35977;SDS011;22056;0.000;0.000;2023-06-19T11:03:39;5.47;;;2.72;;
35977;SDS011;22056;0.000;0.000;2023-06-19T11:06:05;4.57;;;2.33;;
35977;SDS011;22056;0.000;0.000;2023-06-19T11:08:31;4.35;;;2.50;;
35977;SDS011;22056;0.000;0.000;2023-06-19T11:10:57;3.75;;;2.13;;
35977;SDS011;22056;0.000;0.000;2023-06-19T11:13:23;3.63;;;2.20;;
35977;SDS011;22056;0.000;0.000;2023-06-19T11:15:50;2.30;;;2.03;;
35977;SDS011;22056;0.000;0.000;2023-06-19T11:18:16;3.78;;;2.22;;
35977;SDS011;22056;0.000;0.000;2023-06-19T11:20:50;5.72;;;2.00;;
35977;SDS011;22056;0.000;0.000;2023-06-19T11:23:24;5.00;;;2.08;;
35977;SDS011;22056;0.000;0.000;2023-06-19T11:25:51;4.60;;;2.30;;
35977;SDS011;22056;0.000;0.000;2023-06-19T11:28:17;3.10;;;2.08;;
35977;SDS011;22056;0.000;0.000;2023-06-19T11:30:47;4.72;;;2.22;;
35977;SDS011;22056;0.000;0.000;2023-06-19T11:33:21;4.65;;;2.10;;
35977;SDS011;22056;0.000;0.000;2023-06-19T11:35:52;4.30;;;1.92;;
35977;SDS011;22056;0.000;0.000;2023-06-19T11:38:23;5.38;;;2.60;;
35977;SDS011;22056;0.000;0.000;2023-06-19T11:40:49;4.22;;;2.70;;
35977;SDS011;22056;0.000;0.000;2023-06-19T11:43:25;4.07;;;2.20;;
35977;SDS011;22056;0.000;0.000;2023-06-19T11:45:52;6.85;;;2.80;;
35977;SDS011;22056;0.000;0.000;2023-06-19T11:48:22;3.83;;;2.03;;
35977;SDS011;22056;0.000;0.000;2023-06-19T11:50:48;4.90;;;2.63;;
35977;SDS011;22056;0.000;0.000;2023-06-19T11:53:14;4.07;;;2.15;;
35977;SDS011;22056;0.000;0.000;2023-06-19T11:55:40;7.60;;;2.45;;
35977;SDS011;22056;0.000;0.000;2023-06-19T11:58:06;4.50;;;2.30;;
35977;SDS011;22056;0.000;0.000;2023-06-19T12:00:33;2.50;;;2.03;;
35977;SDS011;22056;0.000;0.000;2023-06-19T12:02:59;5.80;;;2.40;;
35977;SDS011;22056;0.000;0.000;2023-06-19T12:05:25;4.03;;;2.22;;
35977;SDS011;22056;0.000;0.000;2023-06-19T12:07:51;8.57;;;2.50;;
35977;SDS011;22056;0.000;0.000;2023-06-19T12:10:17;4.65;;;2.30;;
35977;SDS011;22056;0.000;0.000;2023-06-19T12:12:43;4.45;;;2.10;;
35977;SDS011;22056;0.000;0.000;2023-06-19T12:15:11;4.22;;;2.40;;
35977;SDS011;22056;0.000;0.000;2023-06-19T12:17:37;5.22;;;2.03;;
35977;SDS011;22056;0.000;0.000;2023-06-19T12:20:03;6.35;;;2.40;;
35977;SDS011;22056;0.000;0.000;2023-06-19T12:22:33;4.95;;;2.17;;
35977;SDS011;22056;0.000;0.000;2023-06-19T12:25:00;6.78;;;2.30;;
35977;SDS011;22056;0.000;0.000;2023-06-19T12:27:26;5.82;;;2.25;;
35977;SDS011;22056;0.000;0.000;2023-06-19T12:29:52;7.32;;;2.03;;
35977;SDS011;22056;0.000;0.000;2023-06-19T12:32:19;8.48;;;2.30;;
35977;SDS011;22056;0.000;0.000;2023-06-19T12:34:46;4.40;;;2.08;;
35977;SDS011;22056;0.000;0.000;2023-06-19T12:37:15;5.13;;;2.22;;
35977;SDS011;22056;0.000;0.000;2023-06-19T12:39:44;5.78;;;2.35;;
35977;SDS011;22056;0.000;0.000;2023-06-19T12:42:10;4.53;;;2.40;;
35977;SDS011;22056;0.000;0.000;2023-06-19T12:44:39;5.55;;;2.60;;
35977;SDS011;22056;0.000;0.000;2023-06-19T12:47:06;3.78;;;2.08;;
35977;SDS011;22056;0.000;0.000;2023-06-19T12:49:33;3.88;;;2.08;;
35977;SDS011;22056;0.000;0.000;2023-06-19T12:51:59;6.03;;;2.58;;
35977;SDS011;22056;0.000;0.000;2023-06-19T12:54:25;4.78;;;2.22;;
35977;SDS011;22056;0.000;0.000;2023-06-19T12:56:52;10.45;;;2.53;;
35977;SDS011;22056;0.000;0.000;2023-06-19T12:59:18;9.10;;;2.67;;
35977;SDS011;22056;0.000;0.000;2023-06-19T13:01:45;9.13;;;2.45;;
35977;SDS011;22056;0.000;0.000;2023-06-19T13:04:11;4.88;;;2.20;;
35977;SDS011;22056;0.000;0.000;2023-06-19T13:06:38;6.03;;;2.40;;
35977;SDS011;22056;0.000;0.000;2023-06-19T13:09:05;7.05;;;3.25;;
35977;SDS011;22056;0.000;0.000;2023-06-19T13:11:32;7.78;;;2.50;;
35977;SDS011;22056;0.000;0.000;2023-06-19T13:13:59;5.32;;;2.65;;
35977;SDS011;22056;0.000;0.000;2023-06-19T13:16:25;8.15;;;2.60;;
35977;SDS011;22056;0.000;0.000;2023-06-19T13:18:52;9.45;;;2.55;;
35977;SDS011;22056;0.000;0.000;2023-06-19T13:21:18;5.97;;;2.53;;
35977;SDS011;22056;0.000;0.000;2023-06-19T13:23:44;12.02;;;2.88;;
35977;SDS011;22056;0.000;0.000;2023-06-19T13:26:10;4.82;;;2.88;;
35977;SDS011;22056;0.000;0.000;2023-06-19T13:28:36;7.72;;;2.47;;
35977;SDS011;22056;0.000;0.000;2023-06-19T13:31:03;10.90;;;2.75;;
35977;SDS011;22056;0.000;0.000;2023-06-19T13:33:29;6.95;;;2.63;;
35977;SDS011;22056;0.000;0.000;2023-06-19T13:35:55;6.47;;;2.97;;
35977;SDS011;22056;0.000;0.000;2023-06-19T13:38:21;5.07;;;2.72;;
35977;SDS011;22056;0.000;0.000;2023-06-19T13:40:47;6.85;;;3.00;;
35977;SDS011;22056;0.000;0.000;2023-06-19T13:43:15;7.15;;;2.45;;
35977;SDS011;22056;0.000;0.000;2023-06-19T13:45:41;4.72;;;2.55;;
35977;SDS011;22056;0.000;0.000;2023-06-19T13:48:08;12.93;;;3.10;;
35977;SDS011;22056;0.000;0.000;2023-06-19T13:50:35;6.60;;;2.63;;
35977;SDS011;22056;0.000;0.000;2023-06-19T13:53:01;7.05;;;2.95;;
35977;SDS011;22056;0.000;0.000;2023-06-19T13:55:27;6.40;;;2.90;;
35977;SDS011;22056;0.000;0.000;2023-06-19T13:57:53;4.10;;;2.33;;
35977;SDS011;22056;0.000;0.000;2023-06-19T14:00:19;7.07;;;2.92;;
35977;SDS011;22056;0.000;0.000;2023-06-19T14:02:46;5.93;;;2.40;;
35977;SDS011;22056;0.000;0.000;2023-06-19T14:05:12;3.80;;;2.40;;
35977;SDS011;22056;0.000;0.000;2023-06-19T14:07:40;9.50;;;2.90;;
35977;SDS011;22056;0.000;0.000;2023-06-19T14:10:06;4.55;;;2.67;;
35977;SDS011;22056;0.000;0.000;2023-06-19T14:12:33;5.25;;;2.13;;
35977;SDS011;22056;0.000;0.000;2023-06-19T14:14:59;5.57;;;2.50;;
35977;SDS011;22056;0.000;0.000;2023-06-19T14:17:25;11.05;;;2.47;;
35977;SDS011;22056;0.000;0.000;2023-06-19T14:19:51;7.75;;;2.85;;
35977;SDS011;22056;0.000;0.000;2023-06-19T14:22:17;4.60;;;2.50;;
35977;SDS011;22056;0.000;0.000;2023-06-19T14:24:44;5.85;;;2.45;;
35977;SDS011;22056;0.000;0.000;2023-06-19T14:27:10;5.20;;;2.10;;
35977;SDS011;22056;0.000;0.000;2023-06-19T14:29:36;6.20;;;2.17;;
35977;SDS011;22056;0.000;0.000;2023-06-19T14:32:02;7.60;;;2.78;;
35977;SDS011;22056;0.000;0.000;2023-06-19T14:34:28;6.22;;;2.85;;
35977;SDS011;22056;0.000;0.000;2023-06-19T14:36:54;4.18;;;2.45;;
35977;SDS011;22056;0.000;0.000;2023-06-19T14:39:21;4.60;;;2.55;;
35977;SDS011;22056;0.000;0.000;2023-06-19T14:41:47;6.93;;;2.67;;
35977;SDS011;22056;0.000;0.000;2023-06-19T14:44:13;7.22;;;2.78;;
35977;SDS011;22056;0.000;0.000;2023-06-19T14:46:40;8.23;;;2.65;;
35977;SDS011;22056;0.000;0.000;2023-06-19T14:49:06;7.63;;;3.00;;
35977;SDS011;22056;0.000;0.000;2023-06-19T14:51:33;7.10;;;2.72;;
35977;SDS011;22056;0.000;0.000;2023-06-19T14:53:59;7.18;;;2.97;;
35977;SDS011;22056;0.000;0.000;2023-06-19T14:56:25;8.43;;;2.75;;
35977;SDS011;22056;0.000;0.000;2023-06-19T14:58:52;8.10;;;3.63;;
35977;SDS011;22056;0.000;0.000;2023-06-19T15:01:18;7.45;;;3.28;;
35977;SDS011;22056;0.000;0.000;2023-06-19T15:03:47;9.38;;;2.80;;
35977;SDS011;22056;0.000;0.000;2023-06-19T15:06:13;5.30;;;2.22;;
35977;SDS011;22056;0.000;0.000;2023-06-19T15:08:39;5.57;;;2.35;;